Terminal Aerodrome Forecast
Issued by NWS Omaha/Valley, NE

Home | Current Version | Previous Version | Text Only | Print | Product List | Glossary On
Versions: 1 2 3 4 5 6 7 8 9 10 11 12 13
000
FTUS43 KOAX 311726
TAFLNK
TAF
KLNK 311726Z 3118/0118 06007KT P6SM SCT250
     FM010000 12004KT P6SM BKN250
     FM011400 15012KT P6SM SCT250
     FM011500 16017G22KT P6SM SCT100=

USA.gov is the U.S. government's official web portal to all federal, state and local government web resources and services.